sensor_id;sensor_type;location;lat;lon;timestamp;temperature;humidity
17701;DHT22;8969;48.576;12.580;2022-11-25T00:01:31;3.20;99.90
17701;DHT22;8969;48.576;12.580;2022-11-25T00:04:01;3.20;99.90
17701;DHT22;8969;48.576;12.580;2022-11-25T00:06:30;3.20;99.90
17701;DHT22;8969;48.576;12.580;2022-11-25T00:09:04;3.20;99.90
17701;DHT22;8969;48.576;12.580;2022-11-25T00:11:37;3.20;99.90
17701;DHT22;8969;48.576;12.580;2022-11-25T00:14:08;3.10;99.90
17701;DHT22;8969;48.576;12.580;2022-11-25T00:16:37;3.10;99.90
17701;DHT22;8969;48.576;12.580;2022-11-25T00:19:12;3.10;99.90
17701;DHT22;8969;48.576;12.580;2022-11-25T00:21:40;3.10;99.90
17701;DHT22;8969;48.576;12.580;2022-11-25T00:24:09;3.10;99.90
17701;DHT22;8969;48.576;12.580;2022-11-25T00:26:41;3.00;99.90
17701;DHT22;8969;48.576;12.580;2022-11-25T00:29:10;3.00;99.90
17701;DHT22;8969;48.576;12.580;2022-11-25T00:31:40;3.00;99.90
17701;DHT22;8969;48.576;12.580;2022-11-25T00:34:11;3.00;99.90
17701;DHT22;8969;48.576;12.580;2022-11-25T00:36:40;2.90;99.90
17701;DHT22;8969;48.576;12.580;2022-11-25T00:39:10;2.90;99.90
17701;DHT22;8969;48.576;12.580;2022-11-25T00:41:38;2.80;99.90
17701;DHT22;8969;48.576;12.580;2022-11-25T00:44:25;2.80;99.90
17701;DHT22;8969;48.576;12.580;2022-11-25T00:47:06;2.70;99.90
17701;DHT22;8969;48.576;12.580;2022-11-25T00:49:34;2.70;99.90
17701;DHT22;8969;48.576;12.580;2022-11-25T00:52:03;2.70;99.90
17701;DHT22;8969;48.576;12.580;2022-11-25T00:54:32;2.60;99.90
17701;DHT22;8969;48.576;12.580;2022-11-25T00:57:01;2.60;99.90
17701;DHT22;8969;48.576;12.580;2022-11-25T00:59:30;2.50;99.90
17701;DHT22;8969;48.576;12.580;2022-11-25T01:01:59;2.60;99.90
17701;DHT22;8969;48.576;12.580;2022-11-25T01:04:27;2.60;99.90
17701;DHT22;8969;48.576;12.580;2022-11-25T01:06:55;2.60;99.90
17701;DHT22;8969;48.576;12.580;2022-11-25T01:09:26;2.60;99.90
17701;DHT22;8969;48.576;12.580;2022-11-25T01:11:54;2.50;99.90
17701;DHT22;8969;48.576;12.580;2022-11-25T01:14:22;2.50;99.90
17701;DHT22;8969;48.576;12.580;2022-11-25T01:16:52;2.50;99.90
17701;DHT22;8969;48.576;12.580;2022-11-25T01:19:21;2.50;99.90
17701;DHT22;8969;48.576;12.580;2022-11-25T01:21:49;2.40;99.90
17701;DHT22;8969;48.576;12.580;2022-11-25T01:24:17;2.50;99.90
17701;DHT22;8969;48.576;12.580;2022-11-25T01:26:45;2.40;99.90
17701;DHT22;8969;48.576;12.580;2022-11-25T01:29:15;2.50;99.90
17701;DHT22;8969;48.576;12.580;2022-11-25T01:31:43;2.40;99.90
17701;DHT22;8969;48.576;12.580;2022-11-25T01:34:16;2.40;99.90
17701;DHT22;8969;48.576;12.580;2022-11-25T01:36:44;2.40;99.90
17701;DHT22;8969;48.576;12.580;2022-11-25T01:39:15;2.40;99.90
17701;DHT22;8969;48.576;12.580;2022-11-25T01:41:44;2.40;99.90
17701;DHT22;8969;48.576;12.580;2022-11-25T01:44:14;2.30;99.90
17701;DHT22;8969;48.576;12.580;2022-11-25T01:46:50;2.30;99.90
17701;DHT22;8969;48.576;12.580;2022-11-25T01:49:26;2.30;99.90
17701;DHT22;8969;48.576;12.580;2022-11-25T01:51:59;2.30;99.90
17701;DHT22;8969;48.576;12.580;2022-11-25T01:54:32;2.30;99.90
17701;DHT22;8969;48.576;12.580;2022-11-25T01:57:05;2.30;99.90
17701;DHT22;8969;48.576;12.580;2022-11-25T01:59:40;2.30;99.90
17701;DHT22;8969;48.576;12.580;2022-11-25T02:02:10;2.30;99.90
17701;DHT22;8969;48.576;12.580;2022-11-25T02:08:55;2.20;99.90
17701;DHT22;8969;48.576;12.580;2022-11-25T02:11:26;2.20;99.90
17701;DHT22;8969;48.576;12.580;2022-11-25T02:13:57;2.20;99.90
17701;DHT22;8969;48.576;12.580;2022-11-25T02:16:26;2.20;99.90
17701;DHT22;8969;48.576;12.580;2022-11-25T02:18:55;2.20;99.90
17701;DHT22;8969;48.576;12.580;2022-11-25T02:21:25;2.20;99.90
17701;DHT22;8969;48.576;12.580;2022-11-25T02:24:03;2.10;99.90
17701;DHT22;8969;48.576;12.580;2022-11-25T02:26:37;2.10;99.90
17701;DHT22;8969;48.576;12.580;2022-11-25T02:29:06;2.10;99.90
17701;DHT22;8969;48.576;12.580;2022-11-25T02:31:35;2.10;99.90
17701;DHT22;8969;48.576;12.580;2022-11-25T02:34:04;2.10;99.90
17701;DHT22;8969;48.576;12.580;2022-11-25T02:36:33;2.10;99.90
17701;DHT22;8969;48.576;12.580;2022-11-25T02:39:02;2.10;99.90
17701;DHT22;8969;48.576;12.580;2022-11-25T02:41:36;2.10;99.90
17701;DHT22;8969;48.576;12.580;2022-11-25T02:44:07;2.00;99.90
17701;DHT22;8969;48.576;12.580;2022-11-25T02:46:37;2.10;99.90
17701;DHT22;8969;48.576;12.580;2022-11-25T02:49:06;2.10;99.90
17701;DHT22;8969;48.576;12.580;2022-11-25T02:51:38;2.10;99.90
17701;DHT22;8969;48.576;12.580;2022-11-25T02:54:08;2.10;99.90
17701;DHT22;8969;48.576;12.580;2022-11-25T02:56:38;2.00;99.90
17701;DHT22;8969;48.576;12.580;2022-11-25T02:59:07;2.10;99.90
17701;DHT22;8969;48.576;12.580;2022-11-25T03:01:37;2.10;99.90
17701;DHT22;8969;48.576;12.580;2022-11-25T03:04:07;2.00;99.90
17701;DHT22;8969;48.576;12.580;2022-11-25T03:06:36;2.00;99.90
17701;DHT22;8969;48.576;12.580;2022-11-25T03:09:06;2.00;99.90
17701;DHT22;8969;48.576;12.580;2022-11-25T03:11:38;2.00;99.90
17701;DHT22;8969;48.576;12.580;2022-11-25T03:14:24;2.10;99.90
17701;DHT22;8969;48.576;12.580;2022-11-25T03:16:52;2.10;99.90
17701;DHT22;8969;48.576;12.580;2022-11-25T03:19:20;2.10;99.90
17701;DHT22;8969;48.576;12.580;2022-11-25T03:21:50;2.00;99.90
17701;DHT22;8969;48.576;12.580;2022-11-25T03:24:18;2.00;99.90
17701;DHT22;8969;48.576;12.580;2022-11-25T03:26:49;2.00;99.90
17701;DHT22;8969;48.576;12.580;2022-11-25T03:29:18;2.00;99.90
17701;DHT22;8969;48.576;12.580;2022-11-25T03:31:46;1.90;99.90
17701;DHT22;8969;48.576;12.580;2022-11-25T03:34:15;2.00;99.90
17701;DHT22;8969;48.576;12.580;2022-11-25T03:36:43;1.90;99.90
17701;DHT22;8969;48.576;12.580;2022-11-25T03:39:11;1.90;99.90
17701;DHT22;8969;48.576;12.580;2022-11-25T03:41:40;1.90;99.90
17701;DHT22;8969;48.576;12.580;2022-11-25T03:44:11;1.80;99.90
17701;DHT22;8969;48.576;12.580;2022-11-25T03:46:40;1.80;99.90
17701;DHT22;8969;48.576;12.580;2022-11-25T03:49:08;1.70;99.90
17701;DHT22;8969;48.576;12.580;2022-11-25T03:51:36;1.70;99.90
17701;DHT22;8969;48.576;12.580;2022-11-25T03:54:05;1.70;99.90
17701;DHT22;8969;48.576;12.580;2022-11-25T03:56:53;1.60;99.90
17701;DHT22;8969;48.576;12.580;2022-11-25T03:59:23;1.70;99.90
17701;DHT22;8969;48.576;12.580;2022-11-25T04:01:52;1.60;99.90
17701;DHT22;8969;48.576;12.580;2022-11-25T04:04:21;1.60;99.90
17701;DHT22;8969;48.576;12.580;2022-11-25T04:06:50;1.60;99.90
17701;DHT22;8969;48.576;12.580;2022-11-25T04:09:18;1.60;99.90
17701;DHT22;8969;48.576;12.580;2022-11-25T04:11:47;1.60;99.90
17701;DHT22;8969;48.576;12.580;2022-11-25T04:14:46;1.60;99.90
17701;DHT22;8969;48.576;12.580;2022-11-25T04:17:14;1.60;99.90
17701;DHT22;8969;48.576;12.580;2022-11-25T04:19:44;1.60;99.90
17701;DHT22;8969;48.576;12.580;2022-11-25T04:22:13;1.60;99.90
17701;DHT22;8969;48.576;12.580;2022-11-25T04:24:43;1.60;99.90
17701;DHT22;8969;48.576;12.580;2022-11-25T04:27:16;1.60;99.90
17701;DHT22;8969;48.576;12.580;2022-11-25T04:29:48;1.60;99.90
17701;DHT22;8969;48.576;12.580;2022-11-25T04:32:17;1.50;99.90
17701;DHT22;8969;48.576;12.580;2022-11-25T04:34:45;1.50;99.90
17701;DHT22;8969;48.576;12.580;2022-11-25T04:37:14;1.50;99.90
17701;DHT22;8969;48.576;12.580;2022-11-25T04:39:43;1.50;99.90
17701;DHT22;8969;48.576;12.580;2022-11-25T04:42:16;1.50;99.90
17701;DHT22;8969;48.576;12.580;2022-11-25T04:45:07;1.50;99.90
17701;DHT22;8969;48.576;12.580;2022-11-25T04:47:54;1.50;99.90
17701;DHT22;8969;48.576;12.580;2022-11-25T04:50:23;1.50;99.90
17701;DHT22;8969;48.576;12.580;2022-11-25T04:53:03;1.50;99.90
17701;DHT22;8969;48.576;12.580;2022-11-25T04:55:31;1.50;99.90
17701;DHT22;8969;48.576;12.580;2022-11-25T04:58:03;1.50;99.90
17701;DHT22;8969;48.576;12.580;2022-11-25T05:00:35;1.50;99.90
17701;DHT22;8969;48.576;12.580;2022-11-25T05:03:05;1.50;99.90
17701;DHT22;8969;48.576;12.580;2022-11-25T05:05:37;1.50;99.90
17701;DHT22;8969;48.576;12.580;2022-11-25T05:08:06;1.50;99.90
17701;DHT22;8969;48.576;12.580;2022-11-25T05:10:37;1.50;99.90
17701;DHT22;8969;48.576;12.580;2022-11-25T05:13:05;1.50;99.90
17701;DHT22;8969;48.576;12.580;2022-11-25T05:15:34;1.60;99.90
17701;DHT22;8969;48.576;12.580;2022-11-25T05:18:06;1.60;99.90
17701;DHT22;8969;48.576;12.580;2022-11-25T05:20:42;1.60;99.90
17701;DHT22;8969;48.576;12.580;2022-11-25T05:23:13;1.50;99.90
17701;DHT22;8969;48.576;12.580;2022-11-25T05:25:41;1.50;99.90
17701;DHT22;8969;48.576;12.580;2022-11-25T05:28:35;1.50;99.90
17701;DHT22;8969;48.576;12.580;2022-11-25T05:31:04;1.60;99.90
17701;DHT22;8969;48.576;12.580;2022-11-25T05:33:33;1.60;99.90
17701;DHT22;8969;48.576;12.580;2022-11-25T05:36:04;1.60;99.90
17701;DHT22;8969;48.576;12.580;2022-11-25T05:38:41;1.60;99.90
17701;DHT22;8969;48.576;12.580;2022-11-25T05:41:12;1.50;99.90
17701;DHT22;8969;48.576;12.580;2022-11-25T05:43:43;1.60;99.90
17701;DHT22;8969;48.576;12.580;2022-11-25T05:46:14;1.60;99.90
17701;DHT22;8969;48.576;12.580;2022-11-25T05:48:46;1.60;99.90
17701;DHT22;8969;48.576;12.580;2022-11-25T05:51:16;1.50;99.90
17701;DHT22;8969;48.576;12.580;2022-11-25T05:53:44;1.50;99.90
17701;DHT22;8969;48.576;12.580;2022-11-25T05:56:13;1.50;99.90
17701;DHT22;8969;48.576;12.580;2022-11-25T05:58:57;1.50;99.90
17701;DHT22;8969;48.576;12.580;2022-11-25T06:01:40;1.50;99.90
17701;DHT22;8969;48.576;12.580;2022-11-25T06:04:09;1.40;99.90
17701;DHT22;8969;48.576;12.580;2022-11-25T06:06:38;1.30;99.90
17701;DHT22;8969;48.576;12.580;2022-11-25T06:09:06;1.30;99.90
17701;DHT22;8969;48.576;12.580;2022-11-25T06:11:35;1.40;99.90
17701;DHT22;8969;48.576;12.580;2022-11-25T06:14:03;1.40;99.90
17701;DHT22;8969;48.576;12.580;2022-11-25T06:16:32;1.40;99.90
17701;DHT22;8969;48.576;12.580;2022-11-25T06:19:13;1.40;99.90
17701;DHT22;8969;48.576;12.580;2022-11-25T06:21:41;1.40;99.90
17701;DHT22;8969;48.576;12.580;2022-11-25T06:24:10;1.50;99.90
17701;DHT22;8969;48.576;12.580;2022-11-25T06:26:40;1.40;99.90
17701;DHT22;8969;48.576;12.580;2022-11-25T06:29:09;1.40;99.90
17701;DHT22;8969;48.576;12.580;2022-11-25T06:31:40;1.40;99.90
17701;DHT22;8969;48.576;12.580;2022-11-25T06:34:30;1.40;99.90
17701;DHT22;8969;48.576;12.580;2022-11-25T06:37:01;1.40;99.90
17701;DHT22;8969;48.576;12.580;2022-11-25T06:39:29;1.40;99.90
17701;DHT22;8969;48.576;12.580;2022-11-25T06:41:57;1.50;99.90
17701;DHT22;8969;48.576;12.580;2022-11-25T06:44:26;1.50;99.90
17701;DHT22;8969;48.576;12.580;2022-11-25T06:46:54;1.40;99.90
17701;DHT22;8969;48.576;12.580;2022-11-25T06:49:22;1.50;99.90
17701;DHT22;8969;48.576;12.580;2022-11-25T06:51:51;1.50;99.90
17701;DHT22;8969;48.576;12.580;2022-11-25T06:54:19;1.50;99.90
17701;DHT22;8969;48.576;12.580;2022-11-25T06:56:50;1.50;99.90
17701;DHT22;8969;48.576;12.580;2022-11-25T06:59:20;1.40;99.90
17701;DHT22;8969;48.576;12.580;2022-11-25T07:01:48;1.50;99.90
17701;DHT22;8969;48.576;12.580;2022-11-25T07:04:17;1.50;99.90
17701;DHT22;8969;48.576;12.580;2022-11-25T07:06:45;1.50;99.90
17701;DHT22;8969;48.576;12.580;2022-11-25T07:09:14;1.40;99.90
17701;DHT22;8969;48.576;12.580;2022-11-25T07:11:42;1.40;99.90
17701;DHT22;8969;48.576;12.580;2022-11-25T07:14:13;1.40;99.90
17701;DHT22;8969;48.576;12.580;2022-11-25T07:16:43;1.40;99.90
17701;DHT22;8969;48.576;12.580;2022-11-25T07:19:12;1.40;99.90
17701;DHT22;8969;48.576;12.580;2022-11-25T07:21:42;1.40;99.90
17701;DHT22;8969;48.576;12.580;2022-11-25T07:24:14;1.50;99.90
17701;DHT22;8969;48.576;12.580;2022-11-25T07:26:43;1.50;99.90
17701;DHT22;8969;48.576;12.580;2022-11-25T07:29:13;1.60;99.90
17701;DHT22;8969;48.576;12.580;2022-11-25T07:32:02;1.60;99.90
17701;DHT22;8969;48.576;12.580;2022-11-25T07:34:36;1.60;99.90
17701;DHT22;8969;48.576;12.580;2022-11-25T07:37:04;1.60;99.90
17701;DHT22;8969;48.576;12.580;2022-11-25T07:39:35;1.60;99.90
17701;DHT22;8969;48.576;12.580;2022-11-25T07:42:04;1.70;99.90
17701;DHT22;8969;48.576;12.580;2022-11-25T07:44:32;1.80;99.90
17701;DHT22;8969;48.576;12.580;2022-11-25T07:47:20;1.80;99.90
17701;DHT22;8969;48.576;12.580;2022-11-25T07:49:50;1.90;99.90
17701;DHT22;8969;48.576;12.580;2022-11-25T07:52:20;1.90;99.90
17701;DHT22;8969;48.576;12.580;2022-11-25T07:54:49;2.00;99.90
17701;DHT22;8969;48.576;12.580;2022-11-25T07:57:19;2.00;99.90
17701;DHT22;8969;48.576;12.580;2022-11-25T07:59:47;2.00;99.90
17701;DHT22;8969;48.576;12.580;2022-11-25T08:02:15;2.00;99.90
17701;DHT22;8969;48.576;12.580;2022-11-25T08:04:43;2.10;99.90
17701;DHT22;8969;48.576;12.580;2022-11-25T08:07:11;2.20;99.90
17701;DHT22;8969;48.576;12.580;2022-11-25T08:09:40;2.20;99.90
17701;DHT22;8969;48.576;12.580;2022-11-25T08:12:09;2.20;99.90
17701;DHT22;8969;48.576;12.580;2022-11-25T08:14:37;2.30;99.90
17701;DHT22;8969;48.576;12.580;2022-11-25T08:17:05;2.30;99.90
17701;DHT22;8969;48.576;12.580;2022-11-25T08:19:33;2.30;99.90
17701;DHT22;8969;48.576;12.580;2022-11-25T08:22:03;2.40;99.90
17701;DHT22;8969;48.576;12.580;2022-11-25T08:24:32;2.40;99.90
17701;DHT22;8969;48.576;12.580;2022-11-25T08:27:00;2.50;99.90
17701;DHT22;8969;48.576;12.580;2022-11-25T08:29:29;2.50;99.90
17701;DHT22;8969;48.576;12.580;2022-11-25T08:31:58;2.60;99.90
17701;DHT22;8969;48.576;12.580;2022-11-25T08:34:26;2.60;99.90
17701;DHT22;8969;48.576;12.580;2022-11-25T08:37:00;2.70;99.90
17701;DHT22;8969;48.576;12.580;2022-11-25T08:39:28;2.70;99.90
17701;DHT22;8969;48.576;12.580;2022-11-25T08:42:16;2.80;99.90
17701;DHT22;8969;48.576;12.580;2022-11-25T08:44:50;2.80;99.90
17701;DHT22;8969;48.576;12.580;2022-11-25T08:47:18;2.90;99.90
17701;DHT22;8969;48.576;12.580;2022-11-25T08:49:49;2.90;99.90
17701;DHT22;8969;48.576;12.580;2022-11-25T08:52:18;3.00;99.90
17701;DHT22;8969;48.576;12.580;2022-11-25T08:54:46;3.00;99.90
17701;DHT22;8969;48.576;12.580;2022-11-25T08:57:14;3.00;99.90
17701;DHT22;8969;48.576;12.580;2022-11-25T08:59:43;3.10;99.90
17701;DHT22;8969;48.576;12.580;2022-11-25T09:02:14;3.20;99.90
17701;DHT22;8969;48.576;12.580;2022-11-25T09:04:43;3.20;99.90
17701;DHT22;8969;48.576;12.580;2022-11-25T09:07:11;3.20;99.90
17701;DHT22;8969;48.576;12.580;2022-11-25T09:09:40;3.30;99.90
17701;DHT22;8969;48.576;12.580;2022-11-25T09:12:08;3.30;99.90
17701;DHT22;8969;48.576;12.580;2022-11-25T09:14:36;3.30;99.90
17701;DHT22;8969;48.576;12.580;2022-11-25T09:18:18;3.40;99.90
17701;DHT22;8969;48.576;12.580;2022-11-25T09:22:01;3.40;99.90
17701;DHT22;8969;48.576;12.580;2022-11-25T09:25:50;3.50;99.90
17701;DHT22;8969;48.576;12.580;2022-11-25T09:28:18;3.50;99.90
17701;DHT22;8969;48.576;12.580;2022-11-25T09:30:46;3.60;99.90
17701;DHT22;8969;48.576;12.580;2022-11-25T09:33:15;3.60;99.90
17701;DHT22;8969;48.576;12.580;2022-11-25T09:35:45;3.70;99.90
17701;DHT22;8969;48.576;12.580;2022-11-25T09:38:14;3.70;99.90
17701;DHT22;8969;48.576;12.580;2022-11-25T09:40:48;3.80;99.90
17701;DHT22;8969;48.576;12.580;2022-11-25T09:43:24;3.80;99.90
17701;DHT22;8969;48.576;12.580;2022-11-25T09:46:16;3.90;99.90
17701;DHT22;8969;48.576;12.580;2022-11-25T09:49:18;3.90;99.90
17701;DHT22;8969;48.576;12.580;2022-11-25T09:52:00;4.00;99.90
17701;DHT22;8969;48.576;12.580;2022-11-25T09:54:34;4.10;99.90
17701;DHT22;8969;48.576;12.580;2022-11-25T09:57:14;4.20;99.90
17701;DHT22;8969;48.576;12.580;2022-11-25T09:59:53;4.20;99.90
17701;DHT22;8969;48.576;12.580;2022-11-25T10:02:27;4.20;99.90
17701;DHT22;8969;48.576;12.580;2022-11-25T10:05:02;4.40;99.90
17701;DHT22;8969;48.576;12.580;2022-11-25T10:07:37;4.40;99.90
17701;DHT22;8969;48.576;12.580;2022-11-25T10:10:14;4.40;99.90
17701;DHT22;8969;48.576;12.580;2022-11-25T10:12:46;4.50;99.90
17701;DHT22;8969;48.576;12.580;2022-11-25T10:15:22;4.50;99.90
17701;DHT22;8969;48.576;12.580;2022-11-25T10:17:56;4.60;99.90
17701;DHT22;8969;48.576;12.580;2022-11-25T10:20:28;4.60;99.90
17701;DHT22;8969;48.576;12.580;2022-11-25T10:23:01;4.70;99.90
17701;DHT22;8969;48.576;12.580;2022-11-25T10:25:34;4.70;99.90
17701;DHT22;8969;48.576;12.580;2022-11-25T10:28:13;4.80;99.90
17701;DHT22;8969;48.576;12.580;2022-11-25T10:30:46;4.80;99.90
17701;DHT22;8969;48.576;12.580;2022-11-25T10:33:18;4.90;99.90
17701;DHT22;8969;48.576;12.580;2022-11-25T10:35:51;5.00;99.90
17701;DHT22;8969;48.576;12.580;2022-11-25T10:38:26;5.00;99.90
17701;DHT22;8969;48.576;12.580;2022-11-25T10:40:56;5.00;99.90
17701;DHT22;8969;48.576;12.580;2022-11-25T10:43:25;5.00;99.90
17701;DHT22;8969;48.576;12.580;2022-11-25T10:46:05;5.10;99.90
17701;DHT22;8969;48.576;12.580;2022-11-25T10:48:46;5.10;99.90
17701;DHT22;8969;48.576;12.580;2022-11-25T10:51:31;5.10;99.90
17701;DHT22;8969;48.576;12.580;2022-11-25T10:54:12;5.20;99.90
17701;DHT22;8969;48.576;12.580;2022-11-25T10:56:48;5.20;99.90
17701;DHT22;8969;48.576;12.580;2022-11-25T10:59:25;5.30;99.90
17701;DHT22;8969;48.576;12.580;2022-11-25T11:02:13;5.30;99.90
17701;DHT22;8969;48.576;12.580;2022-11-25T11:04:52;5.30;99.90
17701;DHT22;8969;48.576;12.580;2022-11-25T11:07:22;5.40;99.90
17701;DHT22;8969;48.576;12.580;2022-11-25T11:09:52;5.40;99.90
17701;DHT22;8969;48.576;12.580;2022-11-25T11:12:22;5.40;99.90
17701;DHT22;8969;48.576;12.580;2022-11-25T11:14:51;5.40;99.90
17701;DHT22;8969;48.576;12.580;2022-11-25T11:17:27;5.40;99.90
17701;DHT22;8969;48.576;12.580;2022-11-25T11:20:15;5.50;99.90
17701;DHT22;8969;48.576;12.580;2022-11-25T11:22:47;5.50;99.90
17701;DHT22;8969;48.576;12.580;2022-11-25T11:25:28;5.60;99.90
17701;DHT22;8969;48.576;12.580;2022-11-25T11:27:57;5.50;99.90
17701;DHT22;8969;48.576;12.580;2022-11-25T11:30:27;5.50;99.90
17701;DHT22;8969;48.576;12.580;2022-11-25T11:32:58;5.50;99.90
17701;DHT22;8969;48.576;12.580;2022-11-25T11:35:46;5.50;99.90
17701;DHT22;8969;48.576;12.580;2022-11-25T11:38:27;5.50;99.90
17701;DHT22;8969;48.576;12.580;2022-11-25T11:41:07;5.50;99.90
17701;DHT22;8969;48.576;12.580;2022-11-25T11:44:00;5.50;99.90
17701;DHT22;8969;48.576;12.580;2022-11-25T11:46:39;5.50;99.90
17701;DHT22;8969;48.576;12.580;2022-11-25T11:49:33;5.50;99.90
17701;DHT22;8969;48.576;12.580;2022-11-25T11:52:08;5.70;99.90
17701;DHT22;8969;48.576;12.580;2022-11-25T11:54:43;5.70;99.90
17701;DHT22;8969;48.576;12.580;2022-11-25T11:57:23;5.70;99.90
17701;DHT22;8969;48.576;12.580;2022-11-25T11:59:54;5.70;99.90
17701;DHT22;8969;48.576;12.580;2022-11-25T12:02:30;5.80;99.90
17701;DHT22;8969;48.576;12.580;2022-11-25T12:05:05;5.80;99.90
17701;DHT22;8969;48.576;12.580;2022-11-25T12:07:46;5.90;99.90
17701;DHT22;8969;48.576;12.580;2022-11-25T12:10:23;5.90;99.90
17701;DHT22;8969;48.576;12.580;2022-11-25T12:12:58;6.00;99.90
17701;DHT22;8969;48.576;12.580;2022-11-25T12:15:38;6.00;99.90
17701;DHT22;8969;48.576;12.580;2022-11-25T12:18:17;6.00;99.90
17701;DHT22;8969;48.576;12.580;2022-11-25T12:20:52;6.20;99.90
17701;DHT22;8969;48.576;12.580;2022-11-25T12:23:26;6.30;99.90
17701;DHT22;8969;48.576;12.580;2022-11-25T12:26:01;6.40;99.90
17701;DHT22;8969;48.576;12.580;2022-11-25T12:28:34;6.50;99.90
17701;DHT22;8969;48.576;12.580;2022-11-25T12:31:10;6.50;99.90
17701;DHT22;8969;48.576;12.580;2022-11-25T12:33:50;6.50;99.90
17701;DHT22;8969;48.576;12.580;2022-11-25T12:36:25;6.60;99.90
17701;DHT22;8969;48.576;12.580;2022-11-25T12:38:55;6.50;99.90
17701;DHT22;8969;48.576;12.580;2022-11-25T12:41:34;6.60;99.90
17701;DHT22;8969;48.576;12.580;2022-11-25T12:44:11;6.60;99.90
17701;DHT22;8969;48.576;12.580;2022-11-25T12:46:43;6.60;99.90
17701;DHT22;8969;48.576;12.580;2022-11-25T12:49:17;6.50;99.90
17701;DHT22;8969;48.576;12.580;2022-11-25T12:52:13;6.40;99.90
17701;DHT22;8969;48.576;12.580;2022-11-25T12:55:05;6.40;99.90
17701;DHT22;8969;48.576;12.580;2022-11-25T12:57:59;6.40;99.90
17701;DHT22;8969;48.576;12.580;2022-11-25T13:04:09;6.40;99.90
17701;DHT22;8969;48.576;12.580;2022-11-25T13:09:57;6.20;99.90
17701;DHT22;8969;48.576;12.580;2022-11-25T13:12:39;6.30;99.90
17701;DHT22;8969;48.576;12.580;2022-11-25T13:15:30;6.40;99.90
17701;DHT22;8969;48.576;12.580;2022-11-25T13:18:06;6.40;99.90
17701;DHT22;8969;48.576;12.580;2022-11-25T13:20:45;6.50;99.90
17701;DHT22;8969;48.576;12.580;2022-11-25T13:23:23;6.50;99.90
17701;DHT22;8969;48.576;12.580;2022-11-25T13:25:52;6.60;99.90
17701;DHT22;8969;48.576;12.580;2022-11-25T13:28:31;6.60;99.90
17701;DHT22;8969;48.576;12.580;2022-11-25T13:31:19;6.60;99.90
17701;DHT22;8969;48.576;12.580;2022-11-25T13:34:02;6.70;99.90
17701;DHT22;8969;48.576;12.580;2022-11-25T13:36:44;6.70;99.90
17701;DHT22;8969;48.576;12.580;2022-11-25T13:39:15;6.80;99.90
17701;DHT22;8969;48.576;12.580;2022-11-25T13:41:46;6.80;99.90
17701;DHT22;8969;48.576;12.580;2022-11-25T13:44:24;6.90;99.90
17701;DHT22;8969;48.576;12.580;2022-11-25T13:46:55;6.90;99.90
17701;DHT22;8969;48.576;12.580;2022-11-25T13:49:29;7.00;99.90
17701;DHT22;8969;48.576;12.580;2022-11-25T13:52:01;7.00;99.90
17701;DHT22;8969;48.576;12.580;2022-11-25T13:54:33;7.00;99.90
17701;DHT22;8969;48.576;12.580;2022-11-25T13:57:23;7.10;99.90
17701;DHT22;8969;48.576;12.580;2022-11-25T13:59:55;7.00;99.90
17701;DHT22;8969;48.576;12.580;2022-11-25T14:02:36;7.00;99.90
17701;DHT22;8969;48.576;12.580;2022-11-25T14:05:31;7.00;99.90
17701;DHT22;8969;48.576;12.580;2022-11-25T14:08:13;7.00;99.90
17701;DHT22;8969;48.576;12.580;2022-11-25T14:10:54;7.00;99.90
17701;DHT22;8969;48.576;12.580;2022-11-25T14:13:39;7.00;99.90
17701;DHT22;8969;48.576;12.580;2022-11-25T14:16:21;7.00;99.90
17701;DHT22;8969;48.576;12.580;2022-11-25T14:19:19;6.90;99.90
17701;DHT22;8969;48.576;12.580;2022-11-25T14:22:30;6.90;99.90
17701;DHT22;8969;48.576;12.580;2022-11-25T14:25:13;6.90;99.90
17701;DHT22;8969;48.576;12.580;2022-11-25T14:27:45;6.90;99.90
17701;DHT22;8969;48.576;12.580;2022-11-25T14:30:15;6.90;99.90
17701;DHT22;8969;48.576;12.580;2022-11-25T14:32:49;6.90;99.90
17701;DHT22;8969;48.576;12.580;2022-11-25T14:35:26;6.80;99.90
17701;DHT22;8969;48.576;12.580;2022-11-25T14:37:59;6.80;99.90
17701;DHT22;8969;48.576;12.580;2022-11-25T14:40:34;6.80;99.90
17701;DHT22;8969;48.576;12.580;2022-11-25T14:43:05;6.80;99.90
17701;DHT22;8969;48.576;12.580;2022-11-25T14:45:34;6.80;99.90
17701;DHT22;8969;48.576;12.580;2022-11-25T14:48:14;6.70;99.90
17701;DHT22;8969;48.576;12.580;2022-11-25T14:50:58;6.70;99.90
17701;DHT22;8969;48.576;12.580;2022-11-25T14:53:29;6.70;99.90
17701;DHT22;8969;48.576;12.580;2022-11-25T14:56:00;6.70;99.90
17701;DHT22;8969;48.576;12.580;2022-11-25T14:58:30;6.60;99.90
17701;DHT22;8969;48.576;12.580;2022-11-25T15:01:00;6.60;99.90
17701;DHT22;8969;48.576;12.580;2022-11-25T15:03:31;6.60;99.90
17701;DHT22;8969;48.576;12.580;2022-11-25T15:06:02;6.60;99.90
17701;DHT22;8969;48.576;12.580;2022-11-25T15:08:38;6.50;99.90
17701;DHT22;8969;48.576;12.580;2022-11-25T15:11:12;6.50;99.90
17701;DHT22;8969;48.576;12.580;2022-11-25T15:13:42;6.60;99.90
17701;DHT22;8969;48.576;12.580;2022-11-25T15:16:13;6.50;99.90
17701;DHT22;8969;48.576;12.580;2022-11-25T15:18:47;6.50;99.90
17701;DHT22;8969;48.576;12.580;2022-11-25T15:21:19;6.50;99.90
17701;DHT22;8969;48.576;12.580;2022-11-25T15:23:50;6.40;99.90
17701;DHT22;8969;48.576;12.580;2022-11-25T15:26:19;6.50;99.90
17701;DHT22;8969;48.576;12.580;2022-11-25T15:28:53;6.40;99.90
17701;DHT22;8969;48.576;12.580;2022-11-25T15:31:27;6.40;99.90
17701;DHT22;8969;48.576;12.580;2022-11-25T15:33:59;6.30;99.90
17701;DHT22;8969;48.576;12.580;2022-11-25T15:36:29;6.30;99.90
17701;DHT22;8969;48.576;12.580;2022-11-25T15:46:25;6.30;99.90
17701;DHT22;8969;48.576;12.580;2022-11-25T15:48:58;6.20;99.90
17701;DHT22;8969;48.576;12.580;2022-11-25T15:51:32;6.20;99.90
17701;DHT22;8969;48.576;12.580;2022-11-25T15:54:03;6.20;99.90
17701;DHT22;8969;48.576;12.580;2022-11-25T15:56:36;6.20;99.90
17701;DHT22;8969;48.576;12.580;2022-11-25T16:02:30;6.10;99.90
17701;DHT22;8969;48.576;12.580;2022-11-25T16:05:21;6.10;99.90
17701;DHT22;8969;48.576;12.580;2022-11-25T16:08:00;6.10;99.90
17701;DHT22;8969;48.576;12.580;2022-11-25T16:10:30;6.10;99.90
17701;DHT22;8969;48.576;12.580;2022-11-25T16:13:32;6.10;99.90
17701;DHT22;8969;48.576;12.580;2022-11-25T16:16:14;6.10;99.90
17701;DHT22;8969;48.576;12.580;2022-11-25T16:18:54;6.00;99.90
17701;DHT22;8969;48.576;12.580;2022-11-25T16:21:24;6.10;99.90
17701;DHT22;8969;48.576;12.580;2022-11-25T16:23:59;6.00;99.90
17701;DHT22;8969;48.576;12.580;2022-11-25T16:26:35;6.00;99.90
17701;DHT22;8969;48.576;12.580;2022-11-25T16:29:13;6.00;99.90
17701;DHT22;8969;48.576;12.580;2022-11-25T16:31:44;6.00;99.90
17701;DHT22;8969;48.576;12.580;2022-11-25T16:34:15;6.00;99.90
17701;DHT22;8969;48.576;12.580;2022-11-25T16:36:44;6.00;99.90
17701;DHT22;8969;48.576;12.580;2022-11-25T16:39:15;6.00;99.90
17701;DHT22;8969;48.576;12.580;2022-11-25T16:41:55;6.00;99.90
17701;DHT22;8969;48.576;12.580;2022-11-25T16:44:47;6.00;99.90
17701;DHT22;8969;48.576;12.580;2022-11-25T16:47:17;6.00;99.90
17701;DHT22;8969;48.576;12.580;2022-11-25T16:49:46;6.00;99.90